createdAt,value
2018-09-11T00:00:09.485Z,99689.84
2018-09-11T00:02:37.771Z,99692.96
2018-09-11T00:05:06.143Z,99704.44
2018-09-11T00:07:34.470Z,99706.23
2018-09-11T00:10:02.762Z,99712.98
2018-09-11T00:12:31.005Z,99712.63
2018-09-11T00:14:59.309Z,99717.08
2018-09-11T00:17:27.572Z,99715.40
2018-09-11T00:19:55.841Z,99716.22
2018-09-11T00:22:24.101Z,99712.35
2018-09-11T00:24:52.518Z,99715.51
2018-09-11T00:27:21.993Z,99714.18
2018-09-11T00:29:50.406Z,99716.45
2018-09-11T00:32:18.682Z,99711.14
2018-09-11T00:34:46.958Z,99712.93
2018-09-11T00:37:15.266Z,99702.42
2018-09-11T00:39:43.522Z,99705.58
2018-09-11T00:42:11.780Z,99703.86
2018-09-11T00:44:40.134Z,99708.34
2018-09-11T00:47:09.006Z,99711.00
2018-09-11T00:49:37.298Z,99711.47
2018-09-11T00:52:05.579Z,99712.41
2018-09-11T00:54:33.878Z,99707.59
2018-09-11T00:57:02.159Z,99703.22
2018-09-11T00:59:30.418Z,99704.19
2018-09-11T01:01:58.776Z,99700.21
2018-09-11T01:04:27.107Z,99710.83
2018-09-11T01:06:55.450Z,99713.59
2018-09-11T01:09:24.289Z,99712.73
2018-09-11T01:11:52.555Z,99712.37
2018-09-11T01:14:20.958Z,99715.97
2018-09-11T01:16:49.354Z,99711.98
2018-09-11T01:19:17.728Z,99715.61
2018-09-11T01:21:46.015Z,99712.95
2018-09-11T01:24:14.378Z,99709.44
2018-09-11T01:26:42.694Z,99708.22
2018-09-11T01:29:10.986Z,99708.69
2018-09-11T01:31:39.250Z,99708.77
2018-09-11T01:34:07.762Z,99708.30
2018-09-11T01:36:36.118Z,99705.29
2018-09-11T01:39:06.326Z,99712.39
2018-09-11T01:41:34.711Z,99706.69
2018-09-11T01:44:03.022Z,99706.69
2018-09-11T01:46:31.325Z,99700.56
2018-09-11T01:48:59.623Z,99704.54
2018-09-11T01:51:27.881Z,99699.81
2018-09-11T01:53:57.206Z,99700.27
2018-09-11T01:56:25.475Z,99698.59
2018-09-11T01:58:53.954Z,99687.12
2018-09-11T02:01:22.248Z,99682.27
2018-09-11T02:03:50.705Z,99684.92
2018-09-11T02:06:19.006Z,99676.25
2018-09-11T02:08:47.262Z,99677.58
2018-09-11T02:11:15.642Z,99670.94
2018-09-11T02:13:43.953Z,99670.55
2018-09-11T02:16:12.306Z,99668.01
2018-09-11T02:18:40.558Z,99672.45
2018-09-11T02:21:08.854Z,99671.98
2018-09-11T02:23:37.270Z,99676.83
2018-09-11T02:26:05.549Z,99674.75
2018-09-11T02:28:33.898Z,99675.22
2018-09-11T02:31:02.158Z,99674.00
2018-09-11T02:33:30.450Z,99677.52
2018-09-11T02:35:59.804Z,99675.80
2018-09-11T02:38:28.165Z,99672.78
2018-09-11T02:40:56.499Z,99677.62
2018-09-11T02:43:24.801Z,99675.91
2018-09-11T02:45:53.112Z,99677.73
2018-09-11T02:48:21.375Z,99675.55
2018-09-11T02:50:49.637Z,99678.31
2018-09-11T02:53:17.950Z,99670.82
2018-09-11T02:55:46.250Z,99676.98
2018-09-11T02:58:14.642Z,99673.47
2018-09-11T03:00:42.927Z,99668.63
2018-09-11T03:03:11.307Z,99674.44
2018-09-11T03:05:39.650Z,99671.90
2018-09-11T03:08:07.926Z,99681.55
2018-09-11T03:10:36.242Z,99680.69
2018-09-11T03:13:04.550Z,99681.66
2018-09-11T03:15:33.394Z,99681.66
2018-09-11T03:18:01.634Z,99686.95
2018-09-11T03:20:29.922Z,99695.39
2018-09-11T03:22:58.265Z,99698.05
2018-09-11T03:25:26.610Z,99698.05
2018-09-11T03:27:54.858Z,99697.69
2018-09-11T03:30:23.147Z,99689.72
2018-09-11T03:32:51.478Z,99695.03
2018-09-11T03:35:19.790Z,99695.50
2018-09-11T03:37:48.051Z,99696.47
2018-09-11T03:40:16.334Z,99698.73
2018-09-11T03:42:44.656Z,99700.91
2018-09-11T03:45:13.015Z,99696.94
2018-09-11T03:47:41.254Z,99699.59
2018-09-11T03:50:09.543Z,99700.45
2018-09-11T03:52:37.919Z,99700.91
2018-09-11T03:55:06.666Z,99698.73
2018-09-11T03:57:35.337Z,99700.55
2018-09-11T04:00:03.890Z,99703.67
2018-09-11T04:02:32.239Z,99706.80
2018-09-11T04:05:00.515Z,99709.91
2018-09-11T04:07:28.810Z,99712.20
2018-09-11T04:09:57.091Z,99710.02
2018-09-11T04:12:25.491Z,99706.55
2018-09-11T04:14:53.851Z,99711.84
2018-09-11T04:17:26.543Z,99714.50
2018-09-11T04:19:54.847Z,99711.34
2018-09-11T04:22:23.154Z,99711.84
2018-09-11T04:24:51.408Z,99708.34
2018-09-11T04:27:19.673Z,99707.88
2018-09-11T04:29:47.926Z,99712.78
2018-09-11T04:32:16.191Z,99714.97
2018-09-11T04:34:44.479Z,99711.95
2018-09-11T04:37:12.739Z,99705.79
2018-09-11T04:39:40.999Z,99709.30
2018-09-11T04:42:09.294Z,99708.44
2018-09-11T04:44:37.547Z,99708.44
2018-09-11T04:47:06.115Z,99711.56
2018-09-11T04:49:34.367Z,99711.56
2018-09-11T04:52:02.636Z,99712.03
2018-09-11T04:54:30.907Z,99705.51
2018-09-11T04:56:59.270Z,99707.23
2018-09-11T04:59:27.551Z,99706.01
2018-09-11T05:01:55.853Z,99709.98
2018-09-11T05:04:24.158Z,99708.16
2018-09-11T05:06:52.766Z,99712.64
2018-09-11T05:09:21.015Z,99715.30
2018-09-11T05:11:49.306Z,99714.44
2018-09-11T05:14:17.555Z,99717.95
2018-09-11T05:16:45.822Z,99716.62
2018-09-11T05:19:14.380Z,99710.45
2018-09-11T05:21:42.618Z,99701.27
2018-09-11T05:24:10.926Z,99711.89
2018-09-11T05:26:39.307Z,99707.91
2018-09-11T05:29:07.770Z,99708.27
2018-09-11T05:31:36.043Z,99709.23
2018-09-11T05:34:04.298Z,99713.21
2018-09-11T05:36:32.562Z,99711.89
2018-09-11T05:39:00.918Z,99712.35
2018-09-11T05:41:29.230Z,99711.49
2018-09-11T05:43:57.470Z,99713.21
2018-09-11T05:46:25.795Z,99705.36
2018-09-11T05:48:54.114Z,99711.99
2018-09-11T05:51:22.431Z,99712.46
2018-09-11T05:53:50.713Z,99713.32
2018-09-11T05:56:18.991Z,99712.93
2018-09-11T05:58:47.313Z,99709.34
2018-09-11T06:01:15.710Z,99715.97
2018-09-11T06:03:44.056Z,99714.25
2018-09-11T06:06:12.407Z,99718.23
2018-09-11T06:08:40.707Z,99710.38
2018-09-11T06:11:09.165Z,99720.06
2018-09-11T06:13:37.469Z,99716.08
2018-09-11T06:16:05.859Z,99717.02
2018-09-11T06:18:34.182Z,99719.09
2018-09-11T06:21:02.526Z,99715.69
2018-09-11T06:23:30.903Z,99717.02
2018-09-11T06:25:59.243Z,99717.88
2018-09-11T06:28:27.570Z,99719.66
2018-09-11T06:30:55.891Z,99723.64
2018-09-11T06:33:24.206Z,99720.99
2018-09-11T06:35:52.583Z,99720.13
2018-09-11T06:38:21.022Z,99721.39
2018-09-11T06:40:49.350Z,99723.18
2018-09-11T06:43:17.692Z,99722.72
2018-09-11T06:45:47.158Z,99716.91
2018-09-11T06:48:15.486Z,99727.05
2018-09-11T06:50:43.778Z,99726.69
2018-09-11T06:53:12.126Z,99726.58
2018-09-11T06:55:40.442Z,99735.38
2018-09-11T06:58:08.731Z,99732.36
2018-09-11T07:00:37.019Z,99729.13
2018-09-11T07:03:05.514Z,99733.58
2018-09-11T07:05:33.794Z,99727.30
2018-09-11T07:08:02.102Z,99734.80
2018-09-11T07:10:30.417Z,99733.11
2018-09-11T07:12:58.728Z,99737.92
2018-09-11T07:15:27.011Z,99736.59
2018-09-11T07:17:55.406Z,99739.24
2018-09-11T07:20:23.788Z,99740.10
2018-09-11T07:22:51.951Z,99740.97
2018-09-11T07:25:20.309Z,99743.15
2018-09-11T07:27:49.483Z,99737.34
2018-09-11T07:30:17.837Z,99733.26
2018-09-11T07:32:46.067Z,99739.31
2018-09-11T07:35:14.342Z,99730.42
2018-09-11T07:37:42.676Z,99734.76
2018-09-11T07:40:10.939Z,99732.47
2018-09-11T07:42:39.244Z,99736.84
2018-09-11T07:45:07.595Z,99744.69
2018-09-11T07:47:35.931Z,99743.73
2018-09-11T07:50:04.230Z,99740.89
2018-09-11T07:52:32.545Z,99747.42
2018-09-11T07:55:00.827Z,99744.19
2018-09-11T07:57:29.193Z,99745.41
2018-09-11T07:59:57.384Z,99743.97
2018-09-11T08:02:25.683Z,99750.28
2018-09-11T08:04:53.933Z,99752.47
2018-09-11T08:07:22.215Z,99755.13
2018-09-11T08:09:51.043Z,99757.20
2018-09-11T08:12:19.340Z,99758.03
2018-09-11T08:14:47.631Z,99751.28
2018-09-11T08:17:15.899Z,99758.67
2018-09-11T08:19:44.215Z,99757.63
2018-09-11T08:22:12.479Z,99757.13
2018-09-11T08:24:40.746Z,99759.70
2018-09-11T08:27:09.003Z,99766.16
2018-09-11T08:29:37.311Z,99760.74
2018-09-11T08:32:05.594Z,99758.95
2018-09-11T08:34:33.886Z,99765.37
2018-09-11T08:37:02.199Z,99756.08
2018-09-11T08:39:30.488Z,99762.96
2018-09-11T08:41:58.747Z,99763.35
2018-09-11T08:44:27.077Z,99754.88
2018-09-11T08:46:55.471Z,99754.70
2018-09-11T08:50:48.426Z,99754.59
2018-09-11T08:53:16.726Z,99751.55
2018-09-11T08:55:44.998Z,99746.12
2018-09-11T08:58:13.288Z,99748.20
2018-09-11T09:00:41.631Z,99745.44
2018-09-11T09:03:09.937Z,99744.86
2018-09-11T09:05:38.303Z,99746.93
2018-09-11T09:08:06.699Z,99745.49
2018-09-11T09:10:34.986Z,99742.62
2018-09-11T09:13:03.302Z,99746.41
2018-09-11T09:15:31.623Z,99751.11
2018-09-11T09:17:59.918Z,99754.16
2018-09-11T09:20:28.218Z,99754.41
2018-09-11T09:22:56.514Z,99749.95
2018-09-11T09:25:24.817Z,99751.52
2018-09-11T09:27:53.129Z,99748.28
2018-09-11T09:30:21.458Z,99737.55
2018-09-11T09:32:49.734Z,99740.02
2018-09-11T09:35:18.034Z,99739.52
2018-09-11T09:37:46.426Z,99737.13
2018-09-11T09:40:14.855Z,99737.38
2018-09-11T09:42:43.171Z,99735.11
2018-09-11T09:45:11.504Z,99734.53
2018-09-11T09:47:39.822Z,99736.57
2018-09-11T09:50:08.224Z,99742.63
2018-09-11T09:52:36.609Z,99735.88
2018-09-11T09:55:04.941Z,99735.30
2018-09-11T09:57:33.359Z,99730.72
2018-09-11T10:00:01.679Z,99730.97
2018-09-11T10:02:30.915Z,99726.04
2018-09-11T10:04:59.262Z,99716.16
2018-09-11T10:07:27.458Z,99715.09
2018-09-11T10:09:55.829Z,99707.02
2018-09-11T10:12:24.155Z,99709.08
2018-09-11T10:14:52.431Z,99710.30
2018-09-11T10:17:20.770Z,99709.36
2018-09-11T10:19:49.047Z,99710.93
2018-09-11T10:22:17.402Z,99709.02
2018-09-11T10:24:45.728Z,99709.76
2018-09-11T10:27:14.171Z,99717.73
2018-09-11T10:29:42.510Z,99724.62
2018-09-11T10:32:10.810Z,99721.48
2018-09-11T10:34:39.127Z,99715.08
2018-09-11T10:37:07.493Z,99713.55
2018-09-11T10:39:35.764Z,99704.13
2018-09-11T10:42:04.175Z,99708.01
2018-09-11T10:44:32.483Z,99701.24
2018-09-11T10:47:00.807Z,99695.34
2018-09-11T10:49:29.094Z,99702.61
2018-09-11T10:51:58.370Z,99707.23
2018-09-11T10:54:26.643Z,99697.80
2018-09-11T10:56:54.906Z,99700.70
2018-09-11T10:59:23.190Z,99694.55
2018-09-11T11:01:51.547Z,99692.12
2018-09-11T11:04:19.917Z,99685.01
2018-09-11T11:06:48.207Z,99685.25
2018-09-11T11:09:16.479Z,99685.63
2018-09-11T11:11:44.743Z,99675.23
2018-09-11T11:14:13.023Z,99678.75
2018-09-11T11:16:41.301Z,99684.42
2018-09-11T11:19:09.567Z,99671.98
2018-09-11T11:21:37.887Z,99670.53
2018-09-11T11:24:06.193Z,99653.00
2018-09-11T11:26:34.479Z,99658.33
2018-09-11T11:29:02.791Z,99655.07
2018-09-11T11:31:31.088Z,99654.59
2018-09-11T11:33:59.362Z,99655.81
2018-09-11T11:36:27.717Z,99652.17
2018-09-11T11:38:55.894Z,99669.26
2018-09-11T11:41:24.167Z,99663.94
2018-09-11T11:43:52.459Z,99658.50
2018-09-11T11:46:20.735Z,99650.86
2018-09-11T11:48:48.985Z,99659.14
2018-09-11T11:51:17.331Z,99657.70
2018-09-11T11:53:45.638Z,99656.25
2018-09-11T11:56:13.931Z,99659.64
2018-09-11T11:58:42.208Z,99665.79
2018-09-11T12:01:10.790Z,99665.70
2018-09-11T12:03:39.087Z,99662.06
2018-09-11T12:06:07.403Z,99661.47
2018-09-11T12:08:35.687Z,99662.68
2018-09-11T12:11:04.089Z,99667.41
2018-09-11T12:13:32.363Z,99664.24
2018-09-11T12:16:00.668Z,99660.63
2018-09-11T12:18:28.939Z,99657.00
2018-09-11T12:20:57.230Z,99651.20
2018-09-11T12:23:25.502Z,99659.41
2018-09-11T12:25:53.795Z,99658.47
2018-09-11T12:28:22.098Z,99648.68
2018-09-11T12:30:50.491Z,99644.06
2018-09-11T12:33:18.850Z,99636.08
2018-09-11T12:35:47.166Z,99634.63
2018-09-11T12:38:15.478Z,99633.67
2018-09-11T12:40:43.984Z,99634.03
2018-09-11T12:43:12.286Z,99638.41
2018-09-11T12:45:40.596Z,99632.45
2018-09-11T12:48:09.250Z,99627.98
2018-09-11T12:50:37.279Z,99625.20
2018-09-11T12:53:05.726Z,99621.59
2018-09-11T12:55:34.023Z,99617.95
2018-09-11T12:58:02.319Z,99622.41
2018-09-11T13:00:30.682Z,99622.80
2018-09-11T13:02:58.984Z,99617.48
2018-09-11T13:05:27.315Z,99616.50
2018-09-11T13:07:55.619Z,99611.05
2018-09-11T13:10:23.999Z,99610.58
2018-09-11T13:12:52.318Z,99613.23
2018-09-11T13:15:20.643Z,99610.92
2018-09-11T13:17:49.025Z,99602.34
2018-09-11T13:20:17.314Z,99600.19
2018-09-11T13:22:45.618Z,99607.55
2018-09-11T13:25:13.934Z,99600.06
2018-09-11T13:27:42.262Z,99596.77
2018-09-11T13:30:10.669Z,99597.27
2018-09-11T13:32:39.003Z,99599.81
2018-09-11T13:35:07.358Z,99596.17
2018-09-11T13:37:35.824Z,99589.90
2018-09-11T13:40:04.291Z,99586.73
2018-09-11T13:42:32.705Z,99581.91
2018-09-11T13:45:01.012Z,99587.11
2018-09-11T13:47:29.507Z,99587.94
2018-09-11T13:49:57.903Z,99583.12
2018-09-11T13:52:26.242Z,99578.61
2018-09-11T13:54:54.578Z,99579.00
2018-09-11T13:57:22.862Z,99586.52
2018-09-11T13:59:51.167Z,99585.88
2018-09-11T14:02:19.923Z,99578.40
2018-09-11T14:04:48.222Z,99571.14
2018-09-11T14:07:16.623Z,99566.29
2018-09-11T14:09:44.919Z,99568.35
2018-09-11T14:12:13.235Z,99562.17
2018-09-11T14:14:41.555Z,99570.03
2018-09-11T14:17:09.874Z,99561.19
2018-09-11T14:19:38.199Z,99560.72
2018-09-11T14:22:06.868Z,99561.92
2018-09-11T14:24:35.214Z,99563.63
2018-09-11T14:27:03.534Z,99563.25
2018-09-11T14:29:31.904Z,99568.09
2018-09-11T14:32:00.268Z,99568.95
2018-09-11T14:34:28.860Z,99571.49
2018-09-11T14:36:57.263Z,99571.97
2018-09-11T14:39:25.714Z,99567.84
2018-09-11T14:41:53.998Z,99560.34
2018-09-11T14:44:23.048Z,99555.01
2018-09-11T14:46:51.391Z,99559.86
2018-09-11T14:49:19.843Z,99556.72
2018-09-11T14:51:48.463Z,99558.05
2018-09-11T14:54:16.943Z,99549.56
2018-09-11T14:56:45.422Z,99551.74
2018-09-11T14:59:13.753Z,99550.41
2018-09-11T15:01:42.170Z,99542.90
2018-09-11T15:04:10.549Z,99547.28
2018-09-11T15:06:39.138Z,99544.95
2018-09-11T15:09:09.172Z,99542.42
2018-09-11T15:11:37.614Z,99540.49
2018-09-11T15:14:06.106Z,99552.00
2018-09-11T15:16:34.524Z,99546.67
2018-09-11T15:19:03.011Z,99546.16
2018-09-11T15:21:31.439Z,99539.51
2018-09-11T15:23:59.855Z,99535.45
2018-09-11T15:26:28.163Z,99533.61
2018-09-11T15:28:56.646Z,99531.80
2018-09-11T15:31:25.018Z,99542.33
2018-09-11T15:33:53.491Z,99531.67
2018-09-11T15:36:21.807Z,99528.03
2018-09-11T15:38:50.267Z,99517.88
2018-09-11T15:41:18.830Z,99516.55
2018-09-11T15:43:47.307Z,99523.56
2018-09-11T15:46:15.587Z,99524.55
2018-09-11T15:48:43.955Z,99522.23
2018-09-11T15:51:12.246Z,99520.89
2018-09-11T15:53:40.642Z,99519.44
2018-09-11T15:56:09.138Z,99514.11
2018-09-11T15:58:37.531Z,99518.48
2018-09-11T16:01:06.031Z,99512.30
2018-09-11T16:03:34.507Z,99515.31
2018-09-11T16:06:02.839Z,99514.36
2018-09-11T16:08:31.271Z,99510.36
2018-09-11T16:10:59.887Z,99511.19
2018-09-11T16:13:28.208Z,99511.70
2018-09-11T16:15:56.628Z,99503.58
2018-09-11T16:18:25.334Z,99508.43
2018-09-11T16:20:53.817Z,99509.76
2018-09-11T16:23:22.251Z,99499.45
2018-09-11T16:25:50.628Z,99493.14
2018-09-11T16:28:19.018Z,99488.67
2018-09-11T16:30:47.351Z,99485.53
2018-09-11T16:33:15.918Z,99490.86
2018-09-11T16:35:44.486Z,99484.67
2018-09-11T16:38:12.903Z,99483.81
2018-09-11T16:40:41.187Z,99485.16
2018-09-11T16:43:09.558Z,99482.02
2018-09-11T16:45:37.914Z,99485.66
2018-09-11T16:48:06.206Z,99487.81
2018-09-11T16:50:34.481Z,99483.34
2018-09-11T16:53:02.854Z,99480.33
2018-09-11T16:55:31.158Z,99482.14
2018-09-11T16:57:59.490Z,99478.49
2018-09-11T17:00:27.811Z,99477.67
2018-09-11T17:02:56.522Z,99477.67
2018-09-11T17:05:24.815Z,99476.47
2018-09-11T17:07:53.098Z,99477.80
2018-09-11T17:10:21.402Z,99480.08
2018-09-11T17:12:49.690Z,99487.59
2018-09-11T17:15:17.967Z,99486.73
2018-09-11T17:17:46.315Z,99492.07
2018-09-11T17:20:14.875Z,99482.02
2018-09-11T17:22:43.180Z,99481.55
2018-09-11T17:25:11.522Z,99486.02
2018-09-11T17:27:39.958Z,99489.19
2018-09-11T17:30:08.339Z,99491.84
2018-09-11T17:32:36.685Z,99497.30
2018-09-11T17:35:05.267Z,99499.97
2018-09-11T17:37:33.551Z,99500.92
2018-09-11T17:40:02.005Z,99504.91
2018-09-11T17:42:30.465Z,99498.86
2018-09-11T17:44:58.824Z,99504.06
2018-09-11T17:47:27.205Z,99505.52
2018-09-11T17:49:55.583Z,99505.17
2018-09-11T17:52:23.992Z,99509.17
2018-09-11T17:54:52.415Z,99503.49
2018-09-11T17:57:20.817Z,99507.48
2018-09-11T17:59:49.260Z,99511.48
2018-09-11T18:02:17.576Z,99512.05
2018-09-11T18:04:45.959Z,99514.72
2018-09-11T18:07:14.377Z,99518.33
2018-09-11T18:09:42.759Z,99517.50
2018-09-11T18:12:11.123Z,99525.50
2018-09-11T18:14:39.478Z,99525.84
2018-09-11T18:17:08.808Z,99529.11
2018-09-11T18:19:37.123Z,99525.12
2018-09-11T18:22:05.539Z,99530.56
2018-09-11T18:24:33.999Z,99534.22
2018-09-11T18:27:02.355Z,99536.87
2018-09-11T18:29:30.808Z,99542.67
2018-09-11T18:31:59.130Z,99544.48
2018-09-11T18:34:27.547Z,99542.33
2018-09-11T18:36:55.887Z,99543.28
2018-09-11T18:39:24.190Z,99547.40
2018-09-11T18:41:52.471Z,99550.06
2018-09-11T18:44:20.868Z,99558.52
2018-09-11T18:46:49.218Z,99552.85
2018-09-11T18:49:17.555Z,99566.16
2018-09-11T18:51:46.018Z,99559.63
2018-09-11T18:54:14.303Z,99555.77
2018-09-11T18:56:42.589Z,99558.05
2018-09-11T18:59:10.855Z,99566.89
2018-09-11T19:01:39.301Z,99566.89
2018-09-11T19:04:07.647Z,99572.81
2018-09-11T19:06:35.994Z,99569.80
2018-09-11T19:09:06.153Z,99565.42
2018-09-11T19:11:34.513Z,99564.95
2018-09-11T19:14:02.832Z,99567.73
2018-09-11T19:16:31.278Z,99566.89
2018-09-11T19:18:59.674Z,99564.34
2018-09-11T19:21:27.965Z,99568.47
2018-09-11T19:23:56.260Z,99565.45
2018-09-11T19:26:24.606Z,99564.25
2018-09-11T19:28:53.003Z,99562.06
2018-09-11T19:31:21.407Z,99568.72
2018-09-11T19:33:49.771Z,99567.39
2018-09-11T19:36:18.155Z,99559.52
2018-09-11T19:38:46.471Z,99555.14
2018-09-11T19:41:15.591Z,99558.31
2018-09-11T19:43:44.038Z,99559.77
2018-09-11T19:46:12.474Z,99559.77
2018-09-11T19:48:40.791Z,99556.60
2018-09-11T19:51:09.195Z,99560.25
2018-09-11T19:53:37.550Z,99559.04
2018-09-11T19:56:05.998Z,99549.34
2018-09-11T19:58:34.319Z,99559.52
2018-09-11T20:01:02.659Z,99554.31
2018-09-11T20:03:31.132Z,99554.79
2018-09-11T20:05:59.489Z,99556.59
2018-09-11T20:08:27.847Z,99557.10
2018-09-11T20:10:56.284Z,99557.58
2018-09-11T20:13:24.669Z,99562.42
2018-09-11T20:15:53.014Z,99561.56
2018-09-11T20:18:21.334Z,99559.50
2018-09-11T20:20:49.723Z,99562.67
2018-09-11T20:23:19.020Z,99561.43
2018-09-11T20:25:47.411Z,99563.15
2018-09-11T20:28:15.831Z,99567.73
2018-09-11T20:30:44.188Z,99569.06
2018-09-11T20:33:12.499Z,99564.72
2018-09-11T20:35:40.818Z,99557.34
2018-09-11T20:38:09.164Z,99552.88
2018-09-11T20:40:37.554Z,99563.99
2018-09-11T20:43:05.996Z,99565.32
2018-09-11T20:45:34.383Z,99556.95
2018-09-11T20:48:02.727Z,99557.59
2018-09-11T20:50:31.019Z,99556.25
2018-09-11T20:52:59.362Z,99562.52
2018-09-11T20:55:27.747Z,99559.01
2018-09-11T20:57:56.139Z,99563.00
2018-09-11T21:00:24.435Z,99563.98
2018-09-11T21:02:52.732Z,99563.12
2018-09-11T21:05:21.464Z,99561.79
2018-09-11T21:07:49.750Z,99567.63
2018-09-11T21:10:18.083Z,99563.62
2018-09-11T21:12:46.381Z,99566.41
2018-09-11T21:15:14.718Z,99564.70
2018-09-11T21:17:43.030Z,99567.36
2018-09-11T21:20:11.323Z,99564.34
2018-09-11T21:22:39.644Z,99563.02
2018-09-11T21:25:07.953Z,99571.95
2018-09-11T21:27:36.276Z,99567.13
2018-09-11T21:30:04.767Z,99567.61
2018-09-11T21:32:33.107Z,99571.72
2018-09-11T21:35:01.405Z,99570.86
2018-09-11T21:37:29.762Z,99571.25
2018-09-11T21:39:58.034Z,99575.33
2018-09-11T21:42:26.487Z,99573.64
2018-09-11T21:44:54.765Z,99570.63
2018-09-11T21:47:23.092Z,99572.91
2018-09-11T21:49:51.435Z,99570.25
2018-09-11T21:52:19.830Z,99566.38
2018-09-11T21:54:48.151Z,99574.48
2018-09-11T21:57:16.482Z,99572.69
2018-09-11T21:59:44.822Z,99570.97
2018-09-11T22:02:13.140Z,99570.97
2018-09-11T22:04:41.446Z,99570.58
2018-09-11T22:07:09.827Z,99570.70
2018-09-11T22:09:38.195Z,99574.19
2018-09-11T22:12:06.575Z,99556.06
2018-09-11T22:14:34.878Z,99571.30
2018-09-11T22:17:03.254Z,99577.48
2018-09-11T22:19:31.535Z,99567.05
2018-09-11T22:21:59.860Z,99572.37
2018-09-11T22:24:28.126Z,99570.22
2018-09-11T22:26:56.424Z,99574.68
2018-09-11T22:29:24.806Z,99571.16
2018-09-11T22:31:53.114Z,99565.96
2018-09-11T22:34:21.407Z,99564.63
2018-09-11T22:36:49.706Z,99566.55
2018-09-11T22:39:17.990Z,99563.42
2018-09-11T22:41:46.327Z,99569.22
2018-09-11T22:44:14.621Z,99573.33
2018-09-11T22:46:42.942Z,99571.52
2018-09-11T22:49:11.230Z,99568.13
2018-09-11T22:51:39.570Z,99566.45
2018-09-11T22:54:07.859Z,99577.09
2018-09-11T22:56:36.211Z,99568.72
2018-09-11T22:59:04.548Z,99568.37
2018-09-11T23:01:32.815Z,99570.17
2018-09-11T23:04:01.142Z,99564.97
2018-09-11T23:06:29.526Z,99566.30
2018-09-11T23:08:57.786Z,99564.63
2018-09-11T23:11:26.092Z,99568.23
2018-09-11T23:13:54.390Z,99558.92
2018-09-11T23:16:22.673Z,99559.90
2018-09-11T23:18:50.926Z,99560.38
2018-09-11T23:21:19.211Z,99552.52
2018-09-11T23:23:47.506Z,99556.03
2018-09-11T23:26:15.823Z,99563.15
2018-09-11T23:28:44.079Z,99552.63
2018-09-11T23:31:12.340Z,99546.96
2018-09-11T23:33:40.658Z,99551.89
2018-09-11T23:36:08.946Z,99549.74
2018-09-11T23:38:37.295Z,99548.89
2018-09-11T23:41:05.699Z,99548.41
2018-09-11T23:43:33.967Z,99537.04
2018-09-11T23:46:02.223Z,99540.17
2018-09-11T23:48:30.507Z,99531.34
2018-09-11T23:50:58.771Z,99531.34
2018-09-11T23:53:27.067Z,99534.59
2018-09-11T23:55:55.319Z,99533.27
2018-09-11T23:58:23.600Z,99534.59
